createdAt,value
2023-03-11T00:00:47.187Z,2.45
2023-03-11T00:03:15.400Z,2.43
2023-03-11T00:05:46.022Z,2.49
2023-03-11T00:08:15.328Z,2.45
2023-03-11T00:10:43.788Z,2.52
2023-03-11T00:13:12.171Z,2.60
2023-03-11T00:15:39.796Z,2.51
2023-03-11T00:18:09.972Z,2.51
2023-03-11T00:20:39.063Z,2.42
2023-03-11T00:23:07.026Z,2.49
2023-03-11T00:25:34.552Z,2.52
2023-03-11T00:28:01.434Z,2.51
2023-03-11T00:30:28.753Z,2.53
2023-03-11T00:32:57.008Z,2.39
2023-03-11T00:35:29.021Z,2.53
2023-03-11T00:37:58.603Z,2.51
2023-03-11T00:40:26.869Z,2.50
2023-03-11T00:42:53.360Z,2.46
2023-03-11T00:45:21.090Z,2.53
2023-03-11T00:47:47.678Z,2.42
2023-03-11T00:50:17.937Z,2.46
2023-03-11T00:52:46.031Z,2.48
2023-03-11T00:55:15.210Z,2.44
2023-03-11T00:57:42.677Z,2.47
2023-03-11T01:00:12.866Z,2.39
2023-03-11T01:02:39.507Z,2.34
2023-03-11T01:05:06.551Z,2.30
2023-03-11T01:07:33.652Z,2.30
2023-03-11T01:10:00.752Z,2.30
2023-03-11T01:12:27.382Z,2.25
2023-03-11T01:14:54.402Z,2.35
2023-03-11T01:17:22.194Z,2.29
2023-03-11T01:19:49.454Z,2.23
2023-03-11T01:22:16.306Z,2.24
2023-03-11T01:24:42.859Z,2.20
2023-03-11T01:27:09.338Z,2.16
2023-03-11T01:29:35.866Z,2.16
2023-03-11T01:32:02.283Z,2.10
2023-03-11T01:34:28.767Z,2.10
2023-03-11T01:36:55.232Z,2.06
2023-03-11T01:39:21.704Z,2.01
2023-03-11T01:41:48.151Z,2.06
2023-03-11T01:44:14.598Z,2.10
2023-03-11T01:46:53.166Z,2.10
2023-03-11T01:49:21.702Z,2.09
2023-03-11T01:51:51.900Z,2.16
2023-03-11T01:54:22.044Z,2.15
2023-03-11T01:56:49.461Z,2.16
2023-03-11T01:59:19.308Z,2.14
2023-03-11T02:02:14.870Z,2.10
2023-03-11T02:04:42.101Z,2.04
2023-03-11T02:07:10.063Z,1.82
2023-03-11T02:09:36.850Z,1.97
2023-03-11T02:12:04.691Z,1.97
2023-03-11T02:14:31.754Z,1.92
2023-03-11T02:16:58.806Z,1.94
2023-03-11T02:19:40.382Z,1.97
2023-03-11T02:22:07.761Z,1.97
2023-03-11T02:24:45.519Z,1.99
2023-03-11T02:27:13.761Z,1.95
2023-03-11T02:29:41.076Z,1.93
2023-03-11T02:32:10.516Z,1.92
2023-03-11T02:34:39.512Z,1.83
2023-03-11T02:37:11.212Z,1.87
2023-03-11T02:39:40.252Z,1.81
2023-03-11T02:42:28.129Z,1.73
2023-03-11T02:45:11.255Z,1.70
2023-03-11T02:47:39.147Z,1.66
2023-03-11T02:50:06.884Z,1.73
2023-03-11T02:52:35.507Z,1.77
2023-03-11T02:55:02.065Z,1.80
2023-03-11T02:57:28.506Z,1.78
2023-03-11T02:59:55.057Z,1.69
2023-03-11T03:02:21.514Z,1.71
2023-03-11T03:04:47.930Z,1.67
2023-03-11T03:07:14.388Z,1.70
2023-03-11T03:09:40.899Z,1.62
2023-03-11T03:12:13.198Z,1.59
2023-03-11T03:14:40.176Z,1.62
2023-03-11T03:17:06.988Z,1.56
2023-03-11T03:19:33.464Z,1.49
2023-03-11T03:21:59.893Z,1.36
2023-03-11T03:24:26.331Z,1.49
2023-03-11T03:26:52.819Z,1.46
2023-03-11T03:29:19.727Z,1.47
2023-03-11T03:31:46.510Z,1.45
2023-03-11T03:34:13.016Z,1.45
2023-03-11T03:36:39.775Z,1.40
2023-03-11T03:39:06.399Z,1.37
2023-03-11T03:41:34.336Z,1.36
2023-03-11T03:44:01.106Z,1.32
2023-03-11T03:46:27.566Z,1.24
2023-03-11T03:48:53.996Z,1.27
2023-03-11T03:51:20.496Z,1.21
2023-03-11T03:53:47.028Z,1.07
2023-03-11T03:56:15.800Z,1.04
2023-03-11T03:58:42.297Z,1.04
2023-03-11T04:01:10.700Z,1.05
2023-03-11T04:03:38.909Z,0.96
2023-03-11T04:06:11.627Z,0.95
2023-03-11T04:08:38.242Z,1.01
2023-03-11T04:11:04.830Z,0.98
2023-03-11T04:13:31.419Z,0.98
2023-03-11T04:15:57.868Z,0.97
2023-03-11T04:18:24.359Z,0.69
2023-03-11T04:20:50.883Z,0.58
2023-03-11T04:23:17.326Z,0.74
2023-03-11T04:25:43.830Z,0.72
2023-03-11T04:28:10.361Z,0.75
2023-03-11T04:30:39.870Z,0.78
2023-03-11T04:33:06.375Z,0.78
2023-03-11T04:35:33.164Z,0.72
2023-03-11T04:38:00.748Z,0.69
2023-03-11T04:40:27.266Z,0.62
2023-03-11T04:42:53.907Z,0.57
2023-03-11T04:45:20.389Z,0.47
2023-03-11T04:47:50.919Z,0.52
2023-03-11T04:50:18.334Z,0.37
2023-03-11T04:52:45.210Z,0.39
2023-03-11T04:55:13.784Z,0.53
2023-03-11T04:57:41.545Z,0.54
2023-03-11T05:00:11.002Z,0.56
2023-03-11T05:02:38.806Z,0.43
2023-03-11T05:05:06.315Z,0.39
2023-03-11T05:07:32.822Z,0.24
2023-03-11T05:09:59.240Z,0.29
2023-03-11T05:12:25.995Z,0.28
2023-03-11T05:14:52.451Z,0.33
2023-03-11T05:17:21.906Z,0.36
2023-03-11T05:19:48.771Z,0.39
2023-03-11T05:22:15.187Z,0.39
2023-03-11T05:24:41.658Z,0.29
2023-03-11T05:27:08.312Z,0.30
2023-03-11T05:29:34.758Z,0.29
2023-03-11T05:32:01.245Z,0.26
2023-03-11T05:34:27.705Z,0.13
2023-03-11T05:36:54.158Z,0.23
2023-03-11T05:39:20.610Z,0.26
2023-03-11T05:41:47.549Z,0.29
2023-03-11T05:44:13.981Z,0.31
2023-03-11T05:46:40.535Z,0.33
2023-03-11T05:49:07.006Z,0.30
2023-03-11T05:51:33.500Z,0.26
2023-03-11T05:54:00.446Z,0.37
2023-03-11T05:56:26.994Z,0.29
2023-03-11T05:58:53.425Z,0.14
2023-03-11T06:01:20.942Z,0.16
2023-03-11T06:03:47.532Z,0.19
2023-03-11T06:06:14.659Z,0.31
2023-03-11T06:08:45.977Z,0.37
2023-03-11T06:11:12.510Z,0.34
2023-03-11T06:13:39.342Z,0.38
2023-03-11T06:16:06.350Z,0.39
2023-03-11T06:18:32.894Z,0.36
2023-03-11T06:20:59.894Z,0.28
2023-03-11T06:23:26.940Z,0.32
2023-03-11T06:26:04.179Z,0.31
2023-03-11T06:28:31.226Z,0.35
2023-03-11T06:31:07.311Z,0.43
2023-03-11T06:33:33.741Z,0.33
2023-03-11T06:36:01.696Z,0.32
2023-03-11T06:38:28.170Z,0.37
2023-03-11T06:40:54.617Z,0.28
2023-03-11T06:43:22.198Z,0.31
2023-03-11T06:45:49.040Z,0.19
2023-03-11T06:48:15.877Z,0.22
2023-03-11T06:50:42.528Z,0.25
2023-03-11T06:53:09.452Z,0.32
2023-03-11T06:55:36.353Z,0.31
2023-03-11T06:58:03.051Z,0.34
2023-03-11T07:00:31.157Z,0.26
2023-03-11T07:02:57.872Z,0.25
2023-03-11T07:05:24.349Z,0.25
2023-03-11T07:07:53.789Z,0.35
2023-03-11T07:10:20.332Z,0.43
2023-03-11T07:12:46.832Z,0.51
2023-03-11T07:15:14.091Z,0.61
2023-03-11T07:17:40.711Z,0.65
2023-03-11T07:20:07.701Z,0.72
2023-03-11T07:22:34.161Z,0.82
2023-03-11T07:25:00.626Z,0.92
2023-03-11T07:27:28.198Z,1.04
2023-03-11T07:29:54.686Z,1.05
2023-03-11T07:32:21.208Z,1.16
2023-03-11T07:34:47.656Z,1.32
2023-03-11T07:37:14.376Z,1.35
2023-03-11T07:39:40.968Z,1.43
2023-03-11T07:42:07.633Z,1.56
2023-03-11T07:44:34.193Z,1.70
2023-03-11T07:47:03.400Z,1.78
2023-03-11T07:49:29.908Z,1.77
2023-03-11T07:51:56.413Z,1.98
2023-03-11T07:54:22.850Z,2.03
2023-03-11T07:56:49.556Z,2.21
2023-03-11T07:59:16.052Z,2.27
2023-03-11T08:01:47.098Z,2.33
2023-03-11T08:04:16.948Z,2.55
2023-03-11T08:06:45.699Z,2.61
2023-03-11T08:09:12.184Z,2.66
2023-03-11T08:11:38.822Z,2.69
2023-03-11T08:14:05.533Z,2.76
2023-03-11T08:16:32.084Z,2.85
2023-03-11T08:18:58.570Z,2.85
2023-03-11T08:21:26.683Z,2.88
2023-03-11T08:23:53.293Z,2.88
2023-03-11T08:26:21.823Z,2.97
2023-03-11T08:28:49.410Z,3.01
2023-03-11T08:31:21.974Z,3.18
2023-03-11T08:33:50.160Z,3.21
2023-03-11T08:36:17.779Z,3.38
2023-03-11T08:38:45.155Z,3.43
2023-03-11T08:41:11.881Z,3.42
2023-03-11T08:43:38.337Z,3.43
2023-03-11T08:46:08.219Z,3.55
2023-03-11T08:48:36.814Z,3.54
2023-03-11T08:51:09.758Z,3.68
2023-03-11T08:53:37.647Z,3.56
2023-03-11T08:56:04.390Z,3.51
2023-03-11T08:58:31.007Z,3.68
2023-03-11T09:00:57.665Z,3.70
2023-03-11T09:03:24.135Z,3.66
2023-03-11T09:05:57.171Z,3.60
2023-03-11T09:08:23.647Z,3.50
2023-03-11T09:10:50.075Z,3.58
2023-03-11T09:13:16.501Z,3.42
2023-03-11T09:15:43.053Z,3.48
2023-03-11T09:18:12.844Z,3.42
2023-03-11T09:20:40.504Z,3.48
2023-03-11T09:23:07.874Z,3.42
2023-03-11T09:25:34.329Z,3.34
2023-03-11T09:28:00.993Z,3.29
2023-03-11T09:30:27.436Z,3.29
2023-03-11T09:32:54.116Z,3.45
2023-03-11T09:35:20.742Z,3.47
2023-03-11T09:37:47.179Z,3.57
2023-03-11T09:40:19.416Z,3.54
2023-03-11T09:42:57.563Z,3.60
2023-03-11T09:45:32.251Z,3.66
2023-03-11T09:48:28.856Z,3.56
2023-03-11T09:51:00.942Z,3.60
2023-03-11T09:53:44.864Z,3.71
2023-03-11T09:56:13.921Z,3.65
2023-03-11T09:58:42.199Z,3.63
2023-03-11T10:01:24.430Z,3.60
2023-03-11T10:03:54.376Z,3.59
2023-03-11T10:06:26.259Z,3.61
2023-03-11T10:09:26.791Z,3.66
2023-03-11T10:12:31.060Z,3.65
2023-03-11T10:15:28.432Z,3.74
2023-03-11T10:18:04.224Z,3.80
2023-03-11T10:20:40.210Z,3.92
2023-03-11T10:23:22.372Z,3.94
2023-03-11T10:25:56.708Z,3.93
2023-03-11T10:28:47.390Z,4.22
2023-03-11T10:31:21.585Z,4.38
2023-03-11T10:33:52.315Z,4.51
2023-03-11T10:36:26.476Z,4.80
2023-03-11T10:38:56.271Z,5.00
2023-03-11T10:41:37.259Z,5.24
2023-03-11T10:44:11.948Z,5.20
2023-03-11T10:46:38.385Z,5.39
2023-03-11T10:49:08.367Z,5.59
2023-03-11T10:51:35.198Z,5.68
2023-03-11T10:54:03.463Z,5.53
2023-03-11T10:56:37.372Z,5.35
2023-03-11T10:59:06.197Z,5.31
2023-03-11T11:01:32.813Z,5.20
2023-03-11T11:04:01.843Z,5.30
2023-03-11T11:06:31.405Z,5.13
2023-03-11T11:09:17.767Z,5.02
2023-03-11T11:12:06.330Z,5.09
2023-03-11T11:14:52.768Z,4.92
2023-03-11T11:17:32.886Z,4.86
2023-03-11T11:20:01.460Z,4.91
2023-03-11T11:22:28.678Z,4.86
2023-03-11T11:24:56.051Z,5.00
2023-03-11T11:27:23.917Z,5.00
2023-03-11T11:30:15.282Z,5.00
2023-03-11T11:32:42.328Z,5.04
2023-03-11T11:35:13.003Z,5.17
2023-03-11T11:37:42.319Z,5.16
2023-03-11T11:40:14.747Z,5.10
2023-03-11T11:42:51.713Z,5.15
2023-03-11T11:45:28.457Z,5.24
2023-03-11T11:47:58.431Z,5.42
2023-03-11T11:50:44.622Z,5.59
2023-03-11T11:53:32.906Z,5.70
2023-03-11T11:55:59.676Z,5.55
2023-03-11T11:58:26.121Z,5.78
2023-03-11T12:01:02.864Z,5.91
2023-03-11T12:03:57.916Z,6.04
2023-03-11T12:06:43.108Z,6.13
2023-03-11T12:09:47.599Z,6.02
2023-03-11T12:12:32.218Z,6.28
2023-03-11T12:15:09.896Z,6.42
2023-03-11T12:17:39.373Z,6.45
2023-03-11T12:20:14.669Z,6.42
2023-03-11T12:23:10.175Z,6.42
2023-03-11T12:25:56.344Z,6.25
2023-03-11T12:28:58.384Z,6.05
2023-03-11T12:31:27.582Z,6.18
2023-03-11T12:34:03.258Z,6.24
2023-03-11T12:36:31.163Z,6.47
2023-03-11T12:38:58.467Z,6.58
2023-03-11T12:41:31.848Z,6.76
2023-03-11T12:44:01.285Z,6.45
2023-03-11T12:47:12.253Z,6.86
2023-03-11T12:49:44.054Z,7.03
2023-03-11T12:52:13.620Z,6.99
2023-03-11T12:54:44.970Z,7.09
2023-03-11T12:57:17.807Z,7.25
2023-03-11T13:00:09.846Z,7.29
2023-03-11T13:03:01.261Z,7.04
2023-03-11T13:05:54.203Z,7.45
2023-03-11T13:08:46.220Z,7.60
2023-03-11T13:11:31.510Z,7.57
2023-03-11T13:14:20.030Z,7.51
2023-03-11T13:16:46.822Z,7.46
2023-03-11T13:19:35.084Z,7.61
2023-03-11T13:22:05.577Z,7.62
2023-03-11T13:24:31.975Z,7.51
2023-03-11T13:26:58.350Z,7.51
2023-03-11T13:29:24.763Z,7.48
2023-03-11T13:32:20.449Z,7.31
2023-03-11T13:35:10.408Z,7.30
2023-03-11T13:38:12.411Z,7.28
2023-03-11T13:40:41.463Z,7.34
2023-03-11T13:43:20.735Z,7.28
2023-03-11T13:45:56.640Z,7.19
2023-03-11T13:48:30.933Z,7.27
2023-03-11T13:51:18.078Z,7.31
2023-03-11T13:53:49.757Z,6.78
2023-03-11T13:56:35.134Z,7.03
2023-03-11T13:59:35.001Z,7.21
2023-03-11T14:02:20.455Z,7.17
2023-03-11T14:04:53.216Z,7.05
2023-03-11T14:07:24.460Z,6.67
2023-03-11T14:09:51.093Z,6.94
2023-03-11T14:12:19.160Z,7.08
2023-03-11T14:14:54.748Z,7.18
2023-03-11T14:17:21.418Z,7.09
2023-03-11T14:20:04.637Z,7.12
2023-03-11T14:22:31.685Z,6.98
2023-03-11T14:25:00.168Z,7.16
2023-03-11T14:27:26.646Z,7.10
2023-03-11T14:29:53.176Z,6.85
2023-03-11T14:32:31.854Z,7.22
2023-03-11T14:34:58.859Z,7.40
2023-03-11T14:37:31.168Z,7.45
2023-03-11T14:39:57.651Z,7.46
2023-03-11T14:42:29.705Z,7.46
2023-03-11T14:45:05.016Z,7.49
2023-03-11T14:47:50.187Z,7.51
2023-03-11T14:50:19.586Z,7.43
2023-03-11T14:52:52.755Z,7.41
2023-03-11T14:55:22.503Z,7.53
2023-03-11T14:58:03.071Z,7.62
2023-03-11T15:00:34.298Z,7.63
2023-03-11T15:03:35.971Z,7.57
2023-03-11T15:06:23.790Z,7.60
2023-03-11T15:08:55.748Z,7.59
2023-03-11T15:11:25.161Z,7.62
2023-03-11T15:13:53.017Z,7.55
2023-03-11T15:16:26.188Z,7.29
2023-03-11T15:18:54.350Z,7.29
2023-03-11T15:21:23.383Z,7.31
2023-03-11T15:23:50.761Z,7.40
2023-03-11T15:26:20.535Z,7.53
2023-03-11T15:28:55.734Z,7.52
2023-03-11T15:31:23.250Z,7.53
2023-03-11T15:33:51.515Z,7.60
2023-03-11T15:36:39.252Z,7.54
2023-03-11T15:39:08.736Z,7.52
2023-03-11T15:41:35.145Z,7.43
2023-03-11T15:44:04.086Z,7.06
2023-03-11T15:46:30.600Z,6.83
2023-03-11T15:48:57.377Z,6.75
2023-03-11T15:51:23.878Z,6.93
2023-03-11T15:53:50.341Z,6.97
2023-03-11T15:56:23.623Z,7.06
2023-03-11T15:58:50.433Z,7.01
2023-03-11T16:01:18.334Z,7.03
2023-03-11T16:03:44.882Z,6.93
2023-03-11T16:06:11.428Z,6.94
2023-03-11T16:08:37.882Z,6.88
2023-03-11T16:11:04.443Z,6.98
2023-03-11T16:13:30.918Z,6.91
2023-03-11T16:15:57.397Z,6.98
2023-03-11T16:18:24.069Z,7.00
2023-03-11T16:20:52.283Z,6.93
2023-03-11T16:23:18.672Z,6.96
2023-03-11T16:25:45.463Z,6.87
2023-03-11T16:28:13.817Z,6.82
2023-03-11T16:30:40.236Z,6.64
2023-03-11T16:33:06.797Z,6.51
2023-03-11T16:35:33.765Z,6.56
2023-03-11T16:38:00.343Z,6.52
2023-03-11T16:40:29.483Z,6.46
2023-03-11T16:43:10.278Z,6.34
2023-03-11T16:45:37.137Z,6.33
2023-03-11T16:48:05.483Z,6.30
2023-03-11T16:50:33.333Z,6.19
2023-03-11T16:53:00.553Z,6.21
2023-03-11T16:55:27.731Z,6.26
2023-03-11T16:57:55.962Z,6.22
2023-03-11T17:00:22.554Z,6.09
2023-03-11T17:02:49.036Z,6.07
2023-03-11T17:05:15.534Z,6.05
2023-03-11T17:07:42.221Z,5.93
2023-03-11T17:10:10.567Z,5.98
2023-03-11T17:12:37.403Z,5.97
2023-03-11T17:15:05.434Z,5.95
2023-03-11T17:17:32.017Z,5.86
2023-03-11T17:19:58.499Z,5.89
2023-03-11T17:22:25.192Z,5.86
2023-03-11T17:24:51.704Z,5.75
2023-03-11T17:27:18.122Z,5.72
2023-03-11T17:29:44.579Z,5.70
2023-03-11T17:32:16.833Z,5.69
2023-03-11T17:34:43.591Z,5.65
2023-03-11T17:37:10.146Z,5.57
2023-03-11T17:39:36.621Z,5.40
2023-03-11T17:42:05.921Z,5.41
2023-03-11T17:44:48.528Z,5.34
2023-03-11T17:47:17.878Z,5.25
2023-03-11T17:49:44.354Z,5.26
2023-03-11T17:52:11.036Z,5.09
2023-03-11T17:54:38.373Z,5.05
2023-03-11T17:57:04.819Z,4.90
2023-03-11T17:59:31.278Z,4.86
2023-03-11T18:01:57.759Z,4.85
2023-03-11T18:04:24.327Z,4.85
2023-03-11T18:06:52.584Z,4.73
2023-03-11T18:09:18.981Z,4.55
2023-03-11T18:11:45.466Z,4.49
2023-03-11T18:14:12.638Z,4.43
2023-03-11T18:16:39.668Z,4.26
2023-03-11T18:19:06.169Z,4.25
2023-03-11T18:21:32.636Z,4.35
2023-03-11T18:24:00.555Z,4.27
2023-03-11T18:26:28.301Z,4.24
2023-03-11T18:28:56.296Z,4.23
2023-03-11T18:31:24.451Z,4.01
2023-03-11T18:33:56.494Z,3.85
2023-03-11T18:36:26.044Z,3.83
2023-03-11T18:38:53.478Z,3.82
2023-03-11T18:41:20.288Z,3.82
2023-03-11T18:43:47.104Z,3.66
2023-03-11T18:46:15.703Z,3.54
2023-03-11T18:48:42.577Z,3.50
2023-03-11T18:51:09.404Z,3.54
2023-03-11T18:53:36.458Z,3.51
2023-03-11T18:56:08.231Z,3.37
2023-03-11T18:58:34.679Z,3.29
2023-03-11T19:01:06.331Z,3.41
2023-03-11T19:03:32.942Z,3.30
2023-03-11T19:05:59.800Z,3.17
2023-03-11T19:08:26.981Z,3.31
2023-03-11T19:10:53.773Z,3.20
2023-03-11T19:13:20.520Z,3.18
2023-03-11T19:15:47.138Z,3.04
2023-03-11T19:18:13.846Z,3.03
2023-03-11T19:20:40.505Z,2.81
2023-03-11T19:23:07.830Z,2.84
2023-03-11T19:25:34.736Z,2.90
2023-03-11T19:28:01.441Z,2.73
2023-03-11T19:30:28.136Z,2.60
2023-03-11T19:32:54.811Z,2.67
2023-03-11T19:35:22.967Z,2.55
2023-03-11T19:37:50.301Z,2.59
2023-03-11T19:40:17.624Z,2.50
2023-03-11T19:42:44.202Z,2.42
2023-03-11T19:45:11.253Z,2.41
2023-03-11T19:47:38.348Z,2.46
2023-03-11T19:50:05.321Z,2.47
2023-03-11T19:52:31.725Z,2.40
2023-03-11T19:54:58.293Z,2.25
2023-03-11T19:57:24.782Z,2.31
2023-03-11T19:59:51.238Z,2.31
2023-03-11T20:02:17.910Z,2.10
2023-03-11T20:04:44.436Z,2.01
2023-03-11T20:07:10.938Z,1.95
2023-03-11T20:09:37.499Z,2.08
2023-03-11T20:12:04.346Z,2.11
2023-03-11T20:14:30.864Z,2.05
2023-03-11T20:16:57.508Z,1.88
2023-03-11T20:19:23.984Z,1.80
2023-03-11T20:21:50.486Z,1.80
2023-03-11T20:24:17.056Z,1.89
2023-03-11T20:26:43.506Z,1.86
2023-03-11T20:29:10.279Z,1.78
2023-03-11T20:31:37.143Z,1.61
2023-03-11T20:34:03.736Z,1.75
2023-03-11T20:36:32.906Z,1.53
2023-03-11T20:38:59.594Z,1.67
2023-03-11T20:41:27.555Z,1.58
2023-03-11T20:43:56.159Z,1.63
2023-03-11T20:46:23.190Z,1.61
2023-03-11T20:48:49.708Z,1.52
2023-03-11T20:51:20.283Z,1.60
2023-03-11T20:53:47.776Z,1.51
2023-03-11T20:56:16.834Z,1.58
2023-03-11T20:58:44.372Z,1.60
2023-03-11T21:01:13.137Z,1.34
2023-03-11T21:03:39.747Z,1.33
2023-03-11T21:06:22.941Z,1.43
2023-03-11T21:08:52.822Z,1.27
2023-03-11T21:11:19.412Z,1.27
2023-03-11T21:13:46.166Z,1.22
2023-03-11T21:16:26.921Z,1.23
2023-03-11T21:18:55.345Z,1.18
2023-03-11T21:21:22.116Z,1.15
2023-03-11T21:23:49.447Z,1.13
2023-03-11T21:26:17.011Z,1.26
2023-03-11T21:28:46.409Z,1.21
2023-03-11T21:31:16.186Z,1.21
2023-03-11T21:33:42.942Z,1.28
2023-03-11T21:36:11.482Z,1.30
2023-03-11T21:38:40.441Z,1.28
2023-03-11T21:41:13.881Z,1.15
2023-03-11T21:43:41.833Z,0.97
2023-03-11T21:46:10.826Z,1.01
2023-03-11T21:48:38.777Z,1.05
2023-03-11T21:51:05.993Z,0.99
2023-03-11T21:53:32.485Z,0.96
2023-03-11T21:56:03.719Z,0.85
2023-03-11T21:58:30.841Z,0.90
2023-03-11T22:00:57.692Z,0.95
2023-03-11T22:03:24.328Z,0.87
2023-03-11T22:06:05.222Z,0.97
2023-03-11T22:08:32.019Z,0.83
2023-03-11T22:10:58.612Z,0.81
2023-03-11T22:13:25.597Z,0.82
2023-03-11T22:15:52.186Z,0.83
2023-03-11T22:18:18.615Z,0.84
2023-03-11T22:20:47.451Z,0.77
2023-03-11T22:23:14.339Z,0.72
2023-03-11T22:25:40.807Z,0.70
2023-03-11T22:28:10.293Z,0.67
2023-03-11T22:30:39.831Z,0.65
2023-03-11T22:33:06.650Z,0.56
2023-03-11T22:35:33.189Z,0.57
2023-03-11T22:37:59.721Z,0.57
2023-03-11T22:40:26.868Z,0.58
2023-03-11T22:42:55.783Z,0.54
2023-03-11T22:45:22.955Z,0.52
2023-03-11T22:47:50.415Z,0.63
2023-03-11T22:50:17.994Z,0.60
2023-03-11T22:52:44.520Z,0.65
2023-03-11T22:55:11.266Z,0.65
2023-03-11T22:57:38.952Z,0.66
2023-03-11T23:00:20.814Z,0.67
2023-03-11T23:02:48.801Z,0.58
2023-03-11T23:05:15.906Z,0.65
2023-03-11T23:07:42.507Z,0.60
2023-03-11T23:10:11.262Z,0.59
2023-03-11T23:12:37.933Z,0.66
2023-03-11T23:15:06.893Z,0.73
2023-03-11T23:17:33.466Z,0.66
2023-03-11T23:20:00.035Z,0.71
2023-03-11T23:22:26.769Z,0.58
2023-03-11T23:24:56.065Z,0.58
2023-03-11T23:27:22.565Z,0.62
2023-03-11T23:29:50.500Z,0.67
2023-03-11T23:32:16.970Z,0.66
2023-03-11T23:34:43.719Z,0.63
2023-03-11T23:37:10.274Z,0.58
2023-03-11T23:39:36.792Z,0.54
2023-03-11T23:42:14.981Z,0.45
2023-03-11T23:44:48.996Z,0.47
2023-03-11T23:47:15.435Z,0.65
2023-03-11T23:49:41.884Z,0.57
2023-03-11T23:52:08.626Z,0.60
2023-03-11T23:54:37.289Z,0.59
2023-03-11T23:57:03.922Z,0.62
2023-03-11T23:59:30.384Z,0.62
